Time;durP1;ratioP1;P1;durP2;ratioP2;P2;SDS_P1;SDS_P2;PMS_P1;PMS_P2;Temp;Humidity;BMP_temperature;BMP_pressure;BME280_temperature;BME280_humidity;BME280_pressure;Samples;Min_cycle;Max_cycle;Signal;HPM_P1;HPM_P2
2022/02/15 00:02:19;;;;;;;6.00;2.72;;;6.20;99.90;;;;;;5062311;28;20051;-71
2022/02/15 00:04:45;;;;;;;8.05;2.50;;;6.20;99.90;;;;;;5080509;28;20080;-71
2022/02/15 00:07:10;;;;;;;6.25;2.50;;;6.20;99.90;;;;;;5065288;28;20040;-71
2022/02/15 00:09:36;;;;;;;5.20;2.63;;;6.20;99.90;;;;;;5066668;28;20048;-71
2022/02/15 00:12:02;;;;;;;7.55;2.53;;;6.20;99.90;;;;;;5062929;28;20515;-71
2022/02/15 00:14:27;;;;;;;10.07;3.30;;;6.10;99.90;;;;;;5086646;28;20048;-71
2022/02/15 00:16:53;;;;;;;9.07;2.97;;;6.10;99.90;;;;;;5085567;28;20056;-71
2022/02/15 00:19:19;;;;;;;10.00;2.83;;;6.10;99.90;;;;;;5070308;28;20044;-71
2022/02/15 00:21:45;;;;;;;5.65;2.40;;;6.20;99.90;;;;;;5088106;28;20041;-71
2022/02/15 00:24:11;;;;;;;6.68;2.38;;;6.20;99.90;;;;;;5060745;28;20042;-71
2022/02/15 00:26:37;;;;;;;7.50;2.17;;;6.20;99.90;;;;;;5067709;28;20078;-71
2022/02/15 00:29:02;;;;;;;10.90;2.60;;;6.20;99.90;;;;;;5065830;28;20045;-71
2022/02/15 00:31:29;;;;;;;8.57;2.38;;;6.30;99.90;;;;;;5083389;28;20071;-71
2022/02/15 00:33:55;;;;;;;5.00;1.90;;;6.30;99.90;;;;;;5063316;28;20041;-71
2022/02/15 00:36:21;;;;;;;7.88;2.25;;;6.20;99.90;;;;;;5065969;28;20568;-71
2022/02/15 00:38:47;;;;;;;6.07;2.10;;;6.30;99.90;;;;;;5064566;28;20052;-71
2022/02/15 00:41:12;;;;;;;9.48;2.38;;;6.20;99.90;;;;;;5065605;28;20076;-71
2022/02/15 00:43:38;;;;;;;7.72;2.35;;;6.30;99.90;;;;;;5072027;28;20068;-71
2022/02/15 00:46:04;;;;;;;8.38;2.30;;;6.30;99.90;;;;;;5062231;28;20079;-71
2022/02/15 00:48:30;;;;;;;9.75;3.13;;;6.20;99.90;;;;;;5065773;28;20049;-71
2022/02/15 00:50:56;;;;;;;9.93;2.83;;;6.20;99.90;;;;;;5063507;28;20063;-71
2022/02/15 00:53:21;;;;;;;8.50;2.47;;;6.20;99.90;;;;;;5045652;28;20041;-71
2022/02/15 00:55:47;;;;;;;9.90;3.47;;;6.30;99.90;;;;;;5067695;28;20043;-71
2022/02/15 00:58:13;;;;;;;5.80;2.20;;;6.30;99.90;;;;;;5063139;28;20455;-71
2022/02/15 01:00:38;;;;;;;7.55;2.58;;;6.30;99.90;;;;;;5065055;28;20094;-71
2022/02/15 01:03:04;;;;;;;7.50;2.53;;;6.30;99.90;;;;;;5077263;28;20096;-71
2022/02/15 01:05:30;;;;;;;8.57;2.60;;;6.20;99.90;;;;;;5064463;28;20400;-70
2022/02/15 01:07:55;;;;;;;7.53;2.45;;;6.30;99.90;;;;;;5063672;28;20049;-71
2022/02/15 01:10:22;;;;;;;10.07;2.50;;;6.30;99.90;;;;;;5064671;28;20045;-71
2022/02/15 01:12:49;;;;;;;7.47;2.20;;;6.20;99.90;;;;;;5066092;28;20049;-71
2022/02/15 01:15:18;;;;;;;9.27;2.42;;;6.20;99.90;;;;;;5085091;28;20048;-71
2022/02/15 01:17:47;;;;;;;10.82;2.58;;;6.20;99.90;;;;;;5066331;28;20040;-71
2022/02/15 01:20:13;;;;;;;8.50;2.83;;;6.30;99.90;;;;;;5057741;28;20045;-71
2022/02/15 01:22:39;;;;;;;10.98;2.70;;;6.20;99.90;;;;;;5067403;28;20049;-71
2022/02/15 01:25:06;;;;;;;7.03;2.72;;;6.20;99.90;;;;;;5086952;28;20047;-71
2022/02/15 01:27:31;;;;;;;10.43;3.85;;;6.30;99.90;;;;;;5086793;28;20139;-71
2022/02/15 01:29:57;;;;;;;10.77;3.03;;;6.30;99.90;;;;;;5087516;28;20052;-71
2022/02/15 01:32:23;;;;;;;11.13;2.63;;;6.40;99.90;;;;;;5072443;28;20052;-71
2022/02/15 01:34:49;;;;;;;9.35;2.92;;;6.30;99.90;;;;;;5068098;28;20045;-71
2022/02/15 01:37:15;;;;;;;9.57;2.88;;;6.30;99.90;;;;;;5067607;28;20045;-71
2022/02/15 01:39:41;;;;;;;9.27;2.55;;;6.30;99.90;;;;;;5066139;28;20049;-71
2022/02/15 01:42:07;;;;;;;8.98;3.30;;;6.30;99.90;;;;;;5087356;28;20098;-71
2022/02/15 01:44:35;;;;;;;7.90;3.88;;;6.30;99.90;;;;;;5067730;28;20045;-71
2022/02/15 01:47:01;;;;;;;6.78;3.40;;;6.30;99.90;;;;;;5067261;28;20112;-71
2022/02/15 01:49:27;;;;;;;8.38;3.28;;;6.30;99.90;;;;;;5066691;28;20036;-71
2022/02/15 01:51:53;;;;;;;11.73;2.92;;;6.30;99.90;;;;;;5068699;28;20052;-71
2022/02/15 01:54:18;;;;;;;8.88;3.30;;;6.40;99.90;;;;;;5070473;28;20044;-71
2022/02/15 01:56:44;;;;;;;9.35;3.58;;;6.40;99.90;;;;;;5084405;28;20128;-71
2022/02/15 01:59:10;;;;;;;8.52;3.58;;;6.40;99.90;;;;;;5071049;28;20040;-71
2022/02/15 02:01:36;;;;;;;10.77;3.70;;;6.50;99.90;;;;;;5087042;28;20119;-71
2022/02/15 02:04:02;;;;;;;9.82;3.78;;;6.30;99.90;;;;;;5063708;28;20077;-71
2022/02/15 02:06:27;;;;;;;9.52;4.03;;;6.40;99.90;;;;;;5071310;28;20045;-71
2022/02/15 02:08:54;;;;;;;9.93;3.55;;;6.40;99.90;;;;;;5073247;28;20053;-71
2022/02/15 02:11:19;;;;;;;12.63;3.85;;;6.50;99.90;;;;;;5071340;28;20091;-71
2022/02/15 02:13:45;;;;;;;12.43;3.97;;;6.40;99.90;;;;;;5068470;28;20413;-71
2022/02/15 02:16:11;;;;;;;8.27;4.00;;;6.50;99.90;;;;;;5070604;28;20080;-71
2022/02/15 02:18:37;;;;;;;10.60;3.70;;;6.50;99.90;;;;;;5087425;28;20044;-71
2022/02/15 02:21:03;;;;;;;9.38;3.67;;;6.40;99.90;;;;;;5065710;28;20044;-71
2022/02/15 02:23:29;;;;;;;11.07;4.10;;;6.30;99.90;;;;;;5068606;28;20064;-71
2022/02/15 02:25:55;;;;;;;14.10;4.78;;;6.40;99.90;;;;;;5063372;28;20083;-71
2022/02/15 02:28:21;;;;;;;14.15;4.95;;;6.40;99.90;;;;;;5065278;28;20104;-71
2022/02/15 02:30:47;;;;;;;13.60;5.13;;;6.40;99.90;;;;;;5062042;28;20053;-71
2022/02/15 02:33:12;;;;;;;9.52;3.92;;;6.40;99.90;;;;;;5065827;28;20044;-71
2022/02/15 02:35:38;;;;;;;12.23;4.47;;;6.40;99.90;;;;;;5067320;28;20409;-71
2022/02/15 02:38:04;;;;;;;13.98;3.80;;;6.40;99.90;;;;;;5056989;28;20036;-71
2022/02/15 02:40:30;;;;;;;14.30;3.97;;;6.30;99.90;;;;;;5067647;28;20040;-71
2022/02/15 02:42:55;;;;;;;7.68;4.47;;;6.40;99.90;;;;;;5067548;28;20044;-71
2022/02/15 02:45:22;;;;;;;11.27;4.00;;;6.40;99.90;;;;;;5072205;28;20114;-71
2022/02/15 02:47:52;;;;;;;12.25;4.88;;;6.30;99.90;;;;;;5068597;28;20417;-71
2022/02/15 02:50:20;;;;;;;9.18;4.40;;;6.30;99.90;;;;;;5067737;28;20671;-71
2022/02/15 02:52:46;;;;;;;14.68;4.68;;;6.30;99.90;;;;;;5067786;28;20071;-71
2022/02/15 02:55:12;;;;;;;13.65;5.07;;;6.40;99.90;;;;;;5061109;28;20063;-71
2022/02/15 02:57:39;;;;;;;11.15;4.68;;;6.40;99.90;;;;;;5062111;28;20040;-71
2022/02/15 03:00:08;;;;;;;13.32;5.57;;;6.30;99.90;;;;;;5067797;28;20082;-71
2022/02/15 03:02:34;;;;;;;12.38;5.18;;;6.40;99.90;;;;;;5068511;28;20040;-71
2022/02/15 03:04:59;;;;;;;10.80;4.13;;;6.40;99.90;;;;;;5066026;28;20048;-71
2022/02/15 03:07:25;;;;;;;9.95;4.95;;;6.30;99.90;;;;;;5065160;28;20075;-71
2022/02/15 03:09:51;;;;;;;11.93;5.13;;;6.40;99.90;;;;;;5067283;28;20079;-71
2022/02/15 03:12:16;;;;;;;11.90;4.53;;;6.30;99.90;;;;;;5064224;28;20066;-71
2022/02/15 03:14:42;;;;;;;12.05;4.80;;;6.40;99.90;;;;;;5085000;28;20045;-71
2022/02/15 03:17:08;;;;;;;15.07;4.85;;;6.40;99.90;;;;;;5069834;28;20045;-71
2022/02/15 03:19:34;;;;;;;12.40;4.03;;;6.30;99.90;;;;;;5085753;28;20112;-71
2022/02/15 03:22:00;;;;;;;9.50;4.30;;;6.30;99.90;;;;;;5065915;28;20066;-71
2022/02/15 03:24:27;;;;;;;9.85;3.97;;;6.40;99.90;;;;;;5069711;28;20116;-71
2022/02/15 03:26:53;;;;;;;11.30;3.95;;;6.40;99.90;;;;;;5084557;28;20065;-71
2022/02/15 03:29:18;;;;;;;8.88;3.80;;;6.40;99.90;;;;;;5085989;28;20044;-71
2022/02/15 03:31:44;;;;;;;7.60;4.30;;;6.40;99.90;;;;;;5083033;28;20051;-71
2022/02/15 03:34:10;;;;;;;11.65;4.10;;;6.30;99.90;;;;;;5067728;28;20052;-71
2022/02/15 03:36:37;;;;;;;11.45;3.90;;;6.40;99.90;;;;;;5067129;28;20050;-71
2022/02/15 03:39:05;;;;;;;10.38;3.67;;;6.50;99.90;;;;;;5063456;28;20087;-71
2022/02/15 03:44:16;;;;;;;15.50;3.88;;;6.60;99.90;;;;;;5052623;28;20047;-71
2022/02/15 03:46:41;;;;;;;10.68;3.90;;;6.50;99.90;;;;;;5067476;28;20060;-71
2022/02/15 03:49:11;;;;;;;11.27;3.67;;;6.40;99.90;;;;;;5066604;28;20128;-71
2022/02/15 03:51:40;;;;;;;10.40;5.13;;;6.40;99.90;;;;;;5067637;28;20048;-71
2022/02/15 03:54:06;;;;;;;8.77;3.95;;;6.40;99.90;;;;;;5065346;28;20052;-71
2022/02/15 03:56:32;;;;;;;14.77;5.72;;;6.40;99.90;;;;;;5065538;28;20048;-71
2022/02/15 03:58:59;;;;;;;10.68;4.80;;;6.50;99.90;;;;;;5066121;28;20551;-71
2022/02/15 04:01:25;;;;;;;9.35;4.20;;;6.50;99.90;;;;;;5067436;28;20039;-71
2022/02/15 04:03:51;;;;;;;11.77;4.65;;;6.40;99.90;;;;;;5064704;28;20519;-71
2022/02/15 04:06:17;;;;;;;10.70;4.75;;;6.40;99.90;;;;;;5071801;28;20052;-71
2022/02/15 04:08:43;;;;;;;10.55;4.63;;;6.30;99.90;;;;;;5064776;28;20049;-71
2022/02/15 04:11:09;;;;;;;10.77;4.78;;;6.30;99.90;;;;;;5084449;28;20090;-71
2022/02/15 04:13:34;;;;;;;10.45;4.93;;;6.30;99.90;;;;;;5067544;28;20092;-71
2022/02/15 04:16:00;;;;;;;15.23;5.40;;;6.50;99.90;;;;;;5063302;28;20518;-71
2022/02/15 04:18:26;;;;;;;10.95;4.60;;;6.40;99.90;;;;;;5065918;28;20053;-71
2022/02/15 04:20:51;;;;;;;12.35;5.57;;;6.40;99.90;;;;;;5082478;28;20048;-71
2022/02/15 04:23:17;;;;;;;11.35;5.20;;;6.30;99.90;;;;;;5064112;28;20052;-71
2022/02/15 04:25:43;;;;;;;10.95;4.75;;;6.30;99.90;;;;;;5064280;28;20044;-71
2022/02/15 04:28:09;;;;;;;11.90;4.80;;;6.30;99.90;;;;;;5062639;28;20041;-71
2022/02/15 04:30:35;;;;;;;11.07;4.78;;;6.30;99.90;;;;;;5062897;28;20083;-71
2022/02/15 04:33:02;;;;;;;12.00;4.75;;;6.30;99.90;;;;;;5088543;28;20079;-71
2022/02/15 04:35:28;;;;;;;11.82;5.05;;;6.30;99.90;;;;;;5064338;28;20100;-71
2022/02/15 04:37:54;;;;;;;12.43;4.90;;;6.30;99.90;;;;;;5055885;28;20072;-71
2022/02/15 04:40:19;;;;;;;11.15;5.05;;;6.30;99.90;;;;;;5066042;28;20104;-71
2022/02/15 04:42:45;;;;;;;12.70;5.03;;;6.20;99.90;;;;;;5063841;28;20062;-71
2022/02/15 04:45:11;;;;;;;12.02;5.38;;;6.30;99.90;;;;;;5066314;28;20059;-71
2022/02/15 04:47:37;;;;;;;15.80;6.00;;;6.30;99.90;;;;;;5065595;28;20056;-71
2022/02/15 04:50:03;;;;;;;11.50;5.20;;;6.40;99.90;;;;;;5058378;28;20053;-71
2022/02/15 04:52:29;;;;;;;17.33;6.45;;;6.40;99.90;;;;;;5079048;28;20048;-71
2022/02/15 04:54:55;;;;;;;17.85;7.30;;;6.30;99.90;;;;;;5079512;28;20108;-71
2022/02/15 04:57:20;;;;;;;17.25;6.82;;;6.20;99.90;;;;;;5065242;28;20107;-71
2022/02/15 04:59:46;;;;;;;13.48;6.57;;;6.20;99.90;;;;;;5071434;28;20055;-71
2022/02/15 05:02:12;;;;;;;17.05;7.45;;;6.30;99.90;;;;;;5070822;28;20055;-71
2022/02/15 05:04:50;;;;;;;15.88;7.50;;;6.20;99.90;;;;;;5068923;28;20068;-71
2022/02/15 05:07:17;;;;;;;16.35;7.07;;;6.30;99.90;;;;;;5084247;28;20063;-71
2022/02/15 05:09:43;;;;;;;17.75;7.82;;;6.30;99.90;;;;;;5072587;28;20043;-71
2022/02/15 05:12:10;;;;;;;15.07;7.85;;;6.30;99.90;;;;;;5085537;28;20048;-71
2022/02/15 05:14:36;;;;;;;17.77;7.68;;;6.20;99.90;;;;;;5076416;28;20079;-71
2022/02/15 05:17:02;;;;;;;13.15;7.35;;;6.20;99.90;;;;;;5070758;28;20048;-71
2022/02/15 05:19:27;;;;;;;15.45;8.60;;;6.20;99.90;;;;;;5066789;28;20048;-71
2022/02/15 05:21:53;;;;;;;15.07;8.73;;;6.30;99.90;;;;;;5039247;28;20409;-71
2022/02/15 05:24:20;;;;;;;18.80;8.43;;;6.30;99.90;;;;;;5091774;28;20053;-71
2022/02/15 05:26:45;;;;;;;17.10;9.40;;;6.30;99.90;;;;;;5067495;28;20040;-71
2022/02/15 05:29:11;;;;;;;18.30;8.30;;;6.20;99.90;;;;;;5064747;28;20044;-71
2022/02/15 05:31:37;;;;;;;15.68;8.32;;;6.30;99.90;;;;;;5067474;28;20381;-70
2022/02/15 05:34:03;;;;;;;17.25;9.95;;;6.10;99.90;;;;;;5066276;28;20060;-71
2022/02/15 05:36:30;;;;;;;17.42;9.98;;;6.20;99.90;;;;;;5069632;28;20036;-71
2022/02/15 05:38:57;;;;;;;20.38;8.82;;;6.20;99.90;;;;;;5069370;28;20873;-71
2022/02/15 05:41:23;;;;;;;19.58;9.65;;;6.10;99.90;;;;;;5082072;28;20063;-71
2022/02/15 05:43:48;;;;;;;19.92;9.40;;;6.00;99.90;;;;;;5061223;28;20053;-71
2022/02/15 05:46:14;;;;;;;26.08;10.10;;;6.10;99.90;;;;;;5066919;28;20084;-71
2022/02/15 05:48:40;;;;;;;24.60;9.80;;;6.00;99.90;;;;;;5088822;28;20044;-71
2022/02/15 05:51:05;;;;;;;17.88;9.90;;;6.00;99.90;;;;;;5054673;28;20127;-71
2022/02/15 05:53:32;;;;;;;22.45;10.55;;;6.10;99.90;;;;;;5044405;28;20095;-72
2022/02/15 05:56:01;;;;;;;23.63;11.52;;;6.10;99.90;;;;;;5039426;28;20397;-71
2022/02/15 05:58:28;;;;;;;17.08;9.15;;;6.10;99.90;;;;;;5085881;28;20059;-72
2022/02/15 06:00:54;;;;;;;21.35;11.15;;;6.10;99.90;;;;;;5066991;28;20063;-72
2022/02/15 06:06:04;;;;;;;18.80;9.98;;;5.90;99.90;;;;;;5038735;28;20164;-71
2022/02/15 06:08:29;;;;;;;21.55;9.75;;;6.00;99.90;;;;;;5057466;28;20083;-72
2022/02/15 06:10:55;;;;;;;22.38;10.90;;;6.00;99.90;;;;;;5052810;28;20049;-73
2022/02/15 06:13:21;;;;;;;21.65;10.65;;;5.90;99.90;;;;;;5053305;28;20049;-74
2022/02/15 06:15:47;;;;;;;19.13;11.27;;;5.90;99.90;;;;;;5074361;28;20094;-73
2022/02/15 06:18:13;;;;;;;22.55;12.80;;;6.00;99.90;;;;;;5089349;28;20065;-73
2022/02/15 06:20:40;;;;;;;24.38;12.07;;;5.90;99.90;;;;;;5071710;28;20090;-73
2022/02/15 06:23:06;;;;;;;21.95;12.93;;;6.00;99.90;;;;;;5058330;28;20773;-73
2022/02/15 06:25:32;;;;;;;22.08;11.65;;;6.00;99.90;;;;;;5056787;28;20044;-73
2022/02/15 06:27:57;;;;;;;24.75;12.10;;;6.10;99.90;;;;;;5065051;28;20051;-73
2022/02/15 06:30:23;;;;;;;21.48;11.10;;;5.90;99.90;;;;;;5052612;28;20041;-73
2022/02/15 06:32:49;;;;;;;20.25;11.35;;;6.10;99.90;;;;;;5061464;28;20048;-71
2022/02/15 06:35:15;;;;;;;22.08;11.68;;;6.10;99.90;;;;;;5053688;28;20098;-69
2022/02/15 06:37:45;;;;;;;20.88;11.63;;;6.20;99.90;;;;;;5065435;28;20100;-71
2022/02/15 06:40:13;;;;;;;21.35;12.45;;;6.20;99.90;;;;;;5055250;28;20060;-71
2022/02/15 06:42:39;;;;;;;20.58;12.43;;;6.10;99.90;;;;;;5065570;28;20063;-70
2022/02/15 06:45:06;;;;;;;25.38;13.68;;;6.10;99.90;;;;;;5056450;28;20044;-71
2022/02/15 06:47:32;;;;;;;22.95;13.18;;;6.00;99.90;;;;;;5063830;28;20072;-70
2022/02/15 06:49:59;;;;;;;23.30;12.55;;;6.10;99.90;;;;;;5065279;28;20059;-70
2022/02/15 06:52:26;;;;;;;19.63;13.68;;;6.20;99.90;;;;;;5077281;28;20043;-70
2022/02/15 06:54:52;;;;;;;24.58;12.68;;;6.30;99.90;;;;;;5041677;28;20077;-70
2022/02/15 06:57:18;;;;;;;22.67;12.20;;;6.20;99.90;;;;;;5029921;28;20588;-70
2022/02/15 06:59:44;;;;;;;27.63;13.63;;;6.20;99.90;;;;;;5078334;28;20046;-69
2022/02/15 07:02:09;;;;;;;22.95;13.68;;;6.30;99.90;;;;;;5065764;28;20075;-69
2022/02/15 07:04:35;;;;;;;25.73;13.70;;;6.30;99.90;;;;;;5076737;28;20059;-70
2022/02/15 07:07:01;;;;;;;22.48;12.98;;;6.20;99.90;;;;;;5052030;28;20080;-70
2022/02/15 07:09:27;;;;;;;26.35;13.80;;;6.10;99.90;;;;;;5043385;28;20067;-69
2022/02/15 07:11:52;;;;;;;26.08;14.38;;;6.20;99.90;;;;;;5055508;28;20052;-70
2022/02/15 07:14:18;;;;;;;24.33;13.77;;;6.00;99.90;;;;;;5053918;28;20055;-69
2022/02/15 07:16:44;;;;;;;28.60;14.65;;;6.00;99.90;;;;;;5063728;28;20048;-69
2022/02/15 07:19:10;;;;;;;29.60;14.40;;;6.00;99.90;;;;;;5059410;28;20052;-69
2022/02/15 07:21:37;;;;;;;27.02;14.93;;;6.20;99.90;;;;;;5047921;28;20037;-69
2022/02/15 07:24:04;;;;;;;28.20;15.13;;;6.00;99.90;;;;;;5041126;28;20041;-69
2022/02/15 07:26:30;;;;;;;28.15;15.05;;;6.00;99.90;;;;;;5053246;28;20143;-69
2022/02/15 07:28:57;;;;;;;28.52;14.75;;;6.10;99.90;;;;;;5044109;28;20491;-70
2022/02/15 07:31:23;;;;;;;27.40;15.18;;;6.10;99.90;;;;;;5061619;28;20051;-70
2022/02/15 07:33:50;;;;;;;29.80;16.02;;;6.10;99.90;;;;;;5059444;28;20063;-70
2022/02/15 07:36:17;;;;;;;25.98;15.43;;;6.20;99.90;;;;;;5047392;28;20131;-69
2022/02/15 07:38:42;;;;;;;24.83;15.43;;;6.30;99.90;;;;;;5054042;28;20048;-70
2022/02/15 07:41:09;;;;;;;26.23;14.85;;;6.20;99.90;;;;;;5073697;28;20056;-70
2022/02/15 07:43:35;;;;;;;28.30;15.27;;;6.20;99.90;;;;;;5065036;28;20130;-70
2022/02/15 07:46:01;;;;;;;24.25;15.13;;;6.20;99.90;;;;;;5074125;28;20143;-70
2022/02/15 07:48:28;;;;;;;30.80;16.75;;;6.20;99.90;;;;;;5083903;28;20040;-70
2022/02/15 07:50:55;;;;;;;30.02;16.30;;;6.20;99.90;;;;;;5048015;28;20068;-70
2022/02/15 07:53:21;;;;;;;27.65;16.58;;;6.30;99.90;;;;;;5070298;28;20041;-70
2022/02/15 07:55:46;;;;;;;31.58;17.02;;;6.30;99.90;;;;;;5040134;28;20051;-70
2022/02/15 07:58:12;;;;;;;32.33;17.83;;;6.30;99.90;;;;;;5055189;28;20083;-70
2022/02/15 08:00:38;;;;;;;31.52;17.15;;;6.30;99.90;;;;;;5076233;28;20103;-70
2022/02/15 08:03:04;;;;;;;34.55;19.20;;;6.40;99.90;;;;;;5078060;28;20048;-70
2022/02/15 08:05:29;;;;;;;26.77;17.70;;;6.40;99.90;;;;;;5037026;28;20047;-74
2022/02/15 08:07:57;;;;;;;32.00;19.35;;;6.30;99.90;;;;;;5071767;28;20040;-72
2022/02/15 08:10:24;;;;;;;37.33;22.05;;;6.30;99.90;;;;;;5049636;28;20108;-72
2022/02/15 08:12:57;;;;;;;34.10;19.48;;;6.40;99.90;;;;;;5059316;28;20055;-71
2022/02/15 08:15:28;;;;;;;37.35;20.33;;;6.30;99.90;;;;;;5052016;28;20041;-73
2022/02/15 08:17:57;;;;;;;35.35;20.58;;;6.50;99.90;;;;;;5071785;28;20044;-69
2022/02/15 08:20:23;;;;;;;33.88;19.35;;;6.50;99.90;;;;;;5050507;28;20041;-69
2022/02/15 08:22:50;;;;;;;33.00;17.98;;;6.40;99.90;;;;;;5071938;28;20048;-70
2022/02/15 08:25:16;;;;;;;32.45;19.13;;;6.50;99.90;;;;;;5051508;28;20036;-70
2022/02/15 08:27:42;;;;;;;35.45;19.75;;;6.40;99.90;;;;;;5074120;28;20679;-70
2022/02/15 08:30:08;;;;;;;37.13;19.95;;;6.50;99.90;;;;;;5054038;28;20120;-71
2022/02/15 08:32:34;;;;;;;37.03;20.95;;;6.60;99.90;;;;;;5091825;28;20116;-70
2022/02/15 08:35:00;;;;;;;34.15;19.35;;;6.50;99.90;;;;;;5057964;28;20060;-70
2022/02/15 08:37:25;;;;;;;34.70;19.73;;;6.60;99.90;;;;;;5081638;28;20051;-70
2022/02/15 08:39:51;;;;;;;33.78;19.25;;;6.60;99.90;;;;;;5095103;28;20075;-69
2022/02/15 08:42:17;;;;;;;36.63;20.33;;;6.60;99.90;;;;;;5050275;28;20068;-68
2022/02/15 08:44:44;;;;;;;34.85;20.95;;;6.50;99.90;;;;;;5063575;28;20052;-69
2022/02/15 08:47:10;;;;;;;38.95;20.90;;;6.60;99.90;;;;;;5067275;28;20040;-70
2022/02/15 08:49:36;;;;;;;35.67;20.83;;;6.60;99.90;;;;;;5063028;28;20049;-69
2022/02/15 08:52:03;;;;;;;29.48;19.83;;;6.70;99.90;;;;;;5087793;28;20284;-69
2022/02/15 08:54:29;;;;;;;39.63;20.33;;;6.60;99.90;;;;;;5050723;28;20055;-70
2022/02/15 08:56:55;;;;;;;33.13;19.75;;;6.70;99.90;;;;;;5041331;28;20057;-70
2022/02/15 08:59:21;;;;;;;37.60;20.13;;;6.80;99.90;;;;;;5064590;28;20575;-69
2022/02/15 09:01:50;;;;;;;31.17;20.40;;;6.90;99.90;;;;;;5072866;28;20068;-69
2022/02/15 09:04:16;;;;;;;32.80;19.55;;;6.80;99.90;;;;;;5065312;28;20052;-69
2022/02/15 09:06:42;;;;;;;30.75;18.98;;;6.90;99.90;;;;;;5067151;28;20082;-69
2022/02/15 09:09:10;;;;;;;31.80;19.08;;;7.00;99.90;;;;;;5065833;28;20052;-69
2022/02/15 09:11:37;;;;;;;31.10;18.50;;;7.00;99.90;;;;;;5055489;28;20060;-69
2022/02/15 09:14:03;;;;;;;30.90;18.52;;;7.10;99.90;;;;;;5065981;28;20052;-69
2022/02/15 09:16:30;;;;;;;34.17;18.77;;;7.20;99.90;;;;;;5052902;28;20053;-69
2022/02/15 09:18:57;;;;;;;32.20;17.60;;;7.10;99.90;;;;;;5095980;28;20045;-70
2022/02/15 09:21:23;;;;;;;32.00;18.05;;;7.20;99.90;;;;;;5080821;28;20076;-70
2022/02/15 09:23:49;;;;;;;29.02;16.85;;;7.20;99.90;;;;;;5087848;28;20078;-70
2022/02/15 09:26:15;;;;;;;26.70;17.77;;;7.30;99.90;;;;;;5052952;28;20091;-70
2022/02/15 09:28:41;;;;;;;29.65;16.92;;;7.20;99.90;;;;;;5059073;28;20128;-69
2022/02/15 09:31:07;;;;;;;29.20;16.42;;;7.20;99.90;;;;;;5056643;28;20075;-69
2022/02/15 09:33:32;;;;;;;25.90;15.48;;;7.30;99.90;;;;;;5070718;28;20052;-69
2022/02/15 09:35:58;;;;;;;22.08;13.80;;;7.30;99.90;;;;;;5065354;28;20340;-69
2022/02/15 09:38:24;;;;;;;20.98;12.68;;;7.40;99.90;;;;;;5061515;28;20051;-69
2022/02/15 09:40:50;;;;;;;20.33;12.15;;;7.40;99.90;;;;;;5036784;28;20052;-70
2022/02/15 09:43:16;;;;;;;17.55;11.25;;;7.40;99.90;;;;;;5050319;28;20247;-71
2022/02/15 09:45:46;;;;;;;18.42;11.25;;;7.40;99.90;;;;;;5029657;28;20056;-71
2022/02/15 09:48:13;;;;;;;21.88;11.75;;;7.40;99.90;;;;;;5035284;28;20049;-71
2022/02/15 09:50:40;;;;;;;19.90;11.65;;;7.60;99.90;;;;;;5020051;28;20044;-70
2022/02/15 09:53:06;;;;;;;17.92;10.95;;;7.60;99.90;;;;;;5026091;28;20061;-71
2022/02/15 09:55:33;;;;;;;19.98;12.15;;;7.60;99.90;;;;;;5020769;28;20532;-71
2022/02/15 09:57:59;;;;;;;19.35;11.10;;;7.60;99.90;;;;;;5053099;28;20567;-71
2022/02/15 10:00:25;;;;;;;17.75;10.93;;;7.60;99.90;;;;;;5062434;28;20499;-71
2022/02/15 10:02:52;;;;;;;19.88;12.02;;;7.60;99.90;;;;;;5047064;28;20081;-71
2022/02/15 10:05:19;;;;;;;17.60;10.85;;;7.60;99.90;;;;;;5042333;28;20037;-71
2022/02/15 10:07:53;;;;;;;19.30;11.23;;;7.60;99.90;;;;;;5012464;28;20148;-71
2022/02/15 10:10:34;;;;;;;18.02;11.52;;;7.70;99.90;;;;;;5043964;28;20544;-71
2022/02/15 10:13:00;;;;;;;18.15;11.68;;;7.70;99.90;;;;;;5042703;28;20055;-71
2022/02/15 10:15:36;;;;;;;19.10;11.57;;;7.70;99.90;;;;;;5008601;28;20040;-71
2022/02/15 10:18:13;;;;;;;16.88;10.77;;;7.70;99.90;;;;;;5041181;28;20100;-71
2022/02/15 10:20:42;;;;;;;22.15;10.70;;;7.80;99.90;;;;;;5040922;28;20099;-71
2022/02/15 10:23:13;;;;;;;14.18;9.90;;;7.90;99.90;;;;;;5054786;28;20049;-71
2022/02/15 10:25:39;;;;;;;17.05;9.02;;;7.90;99.90;;;;;;5028836;28;20140;-71
2022/02/15 10:28:21;;;;;;;16.52;8.75;;;8.00;99.90;;;;;;5039072;28;20041;-71
2022/02/15 10:30:56;;;;;;;15.57;8.68;;;7.90;99.90;;;;;;5027837;28;20391;-71
2022/02/15 10:33:28;;;;;;;18.30;7.95;;;7.90;99.90;;;;;;5032456;28;20160;-71
2022/02/15 10:36:00;;;;;;;14.38;11.63;;;7.90;99.90;;;;;;5030040;28;20056;-71
2022/02/15 10:38:42;;;;;;;11.00;7.25;;;8.00;99.90;;;;;;5040566;28;20040;-71
2022/02/15 10:41:11;;;;;;;12.93;7.82;;;8.10;99.90;;;;;;5040123;28;20260;-71
2022/02/15 10:43:48;;;;;;;14.52;7.32;;;8.10;99.90;;;;;;5064036;28;20049;-71
2022/02/15 10:46:16;;;;;;;14.38;7.05;;;8.10;99.90;;;;;;5077134;28;20107;-71
2022/02/15 10:48:43;;;;;;;13.25;7.55;;;8.00;99.90;;;;;;5076514;28;20049;-70
2022/02/15 10:51:09;;;;;;;14.30;7.63;;;8.00;99.90;;;;;;5052402;28;20112;-71
2022/02/15 10:53:35;;;;;;;15.48;9.63;;;8.10;99.90;;;;;;5034732;28;20060;-71
2022/02/15 10:56:02;;;;;;;15.02;13.43;;;8.10;99.90;;;;;;5045120;28;20066;-71
2022/02/15 10:58:30;;;;;;;15.40;13.82;;;8.20;99.90;;;;;;5072284;28;20048;-71
2022/02/15 11:01:00;;;;;;;16.20;9.18;;;8.20;99.90;;;;;;5040286;28;20051;-70
2022/02/15 11:03:30;;;;;;;10.10;9.00;;;8.30;99.90;;;;;;5055484;28;20048;-71
2022/02/15 11:05:57;;;;;;;10.68;7.40;;;8.30;99.90;;;;;;5073615;28;20071;-71
2022/02/15 11:08:24;;;;;;;10.05;5.65;;;8.20;99.90;;;;;;5069089;28;20036;-71
2022/02/15 11:11:16;;;;;;;10.85;5.18;;;8.30;99.90;;;;;;5039090;28;20051;-71
2022/02/15 11:13:43;;;;;;;9.00;4.70;;;8.30;99.90;;;;;;5094211;28;20036;-71
2022/02/15 11:16:16;;;;;;;14.80;4.72;;;8.30;99.90;;;;;;5057261;28;20058;-71
2022/02/15 11:18:44;;;;;;;11.48;3.85;;;8.40;99.90;;;;;;5070657;28;20044;-70
2022/02/15 11:21:23;;;;;;;11.27;4.22;;;8.40;99.90;;;;;;5047655;28;20273;-70
2022/02/15 11:23:58;;;;;;;8.43;3.42;;;8.30;99.90;;;;;;5065885;28;20079;-70
2022/02/15 11:26:31;;;;;;;9.98;4.38;;;8.30;99.90;;;;;;5047172;28;20052;-70
2022/02/15 11:28:56;;;;;;;9.73;3.80;;;8.20;99.90;;;;;;5071286;28;20078;-70
2022/02/15 11:31:29;;;;;;;6.90;3.70;;;8.10;99.90;;;;;;5057980;28;20048;-70
2022/02/15 11:33:56;;;;;;;7.63;3.97;;;8.00;99.90;;;;;;5068780;28;20047;-70
2022/02/15 11:36:23;;;;;;;11.77;4.43;;;8.00;99.90;;;;;;5049568;28;20131;-71
2022/02/15 11:38:57;;;;;;;13.32;4.55;;;7.90;99.90;;;;;;5051992;28;20610;-70
2022/02/15 11:41:26;;;;;;;12.20;3.25;;;7.80;99.90;;;;;;5062237;28;20073;-70
2022/02/15 11:44:00;;;;;;;5.90;3.13;;;7.90;99.90;;;;;;5076686;28;20056;-68
2022/02/15 11:46:35;;;;;;;9.32;3.25;;;8.00;99.90;;;;;;5064814;28;20124;-69
2022/02/15 11:49:12;;;;;;;6.90;3.67;;;7.90;99.90;;;;;;5073912;28;20106;-71
2022/02/15 11:51:39;;;;;;;11.75;3.13;;;8.10;99.90;;;;;;5060689;28;20090;-67
2022/02/15 11:54:14;;;;;;;8.88;2.72;;;8.20;99.90;;;;;;5057222;28;20048;-70
2022/02/15 11:56:47;;;;;;;7.50;2.60;;;8.30;99.90;;;;;;5049554;28;20044;-69
2022/02/15 11:59:16;;;;;;;7.45;2.35;;;8.30;99.90;;;;;;5072883;28;20127;-68
2022/02/15 12:01:53;;;;;;;10.73;2.53;;;8.50;99.90;;;;;;5050236;28;20052;-69
2022/02/15 12:04:19;;;;;;;11.93;2.83;;;8.40;99.90;;;;;;5060739;28;20044;-69
2022/02/15 12:06:48;;;;;;;7.20;2.55;;;8.50;99.90;;;;;;5051766;28;20045;-69
2022/02/15 12:09:15;;;;;;;8.23;2.78;;;8.50;99.90;;;;;;5059013;28;20107;-69
2022/02/15 12:11:43;;;;;;;5.47;2.25;;;8.50;99.90;;;;;;5046058;28;20044;-69
2022/02/15 12:14:22;;;;;;;7.20;3.28;;;8.40;99.90;;;;;;5057209;28;20068;-70
2022/02/15 12:16:53;;;;;;;8.02;2.17;;;8.30;99.90;;;;;;5058429;28;20076;-69
2022/02/15 12:19:26;;;;;;;10.52;2.72;;;8.20;99.90;;;;;;5062383;28;20052;-69
2022/02/15 12:21:54;;;;;;;10.73;2.80;;;8.20;99.90;;;;;;5076442;28;20459;-69
2022/02/15 12:24:21;;;;;;;6.32;2.55;;;8.40;99.90;;;;;;5066154;28;20055;-69
2022/02/15 12:26:47;;;;;;;9.73;3.15;;;8.60;99.90;;;;;;5048692;28;20155;-69
2022/02/15 12:29:13;;;;;;;6.88;2.55;;;8.70;99.90;;;;;;5058314;28;20080;-69
2022/02/15 12:31:40;;;;;;;7.20;4.18;;;8.90;99.90;;;;;;5052906;28;20200;-69
2022/02/15 12:34:08;;;;;;;5.10;2.50;;;8.70;99.90;;;;;;5058962;28;20527;-70
2022/02/15 12:36:34;;;;;;;7.88;2.70;;;8.90;99.90;;;;;;5071639;28;20045;-70
2022/02/15 12:39:06;;;;;;;5.13;2.97;;;9.00;99.90;;;;;;5054165;28;20040;-69
2022/02/15 12:41:37;;;;;;;5.70;3.53;;;9.00;99.90;;;;;;5048220;28;20093;-69
2022/02/15 12:44:03;;;;;;;6.88;2.95;;;9.10;99.90;;;;;;5062878;28;20527;-70
2022/02/15 12:46:29;;;;;;;6.47;3.33;;;9.30;99.90;;;;;;5074692;28;20036;-70
2022/02/15 12:48:55;;;;;;;5.85;2.45;;;9.30;99.90;;;;;;5053488;28;20044;-70
2022/02/15 12:51:22;;;;;;;4.95;2.10;;;9.40;99.90;;;;;;5052251;28;20491;-69